sensor_id;sensor_type;location;lat;lon;timestamp;temperature;humidity
25616;DHT22;13482;48.234;13.006;2023-12-07T00:00:35;5.30;75.60
25616;DHT22;13482;48.234;13.006;2023-12-07T00:03:15;5.30;75.50
25616;DHT22;13482;48.234;13.006;2023-12-07T00:05:54;5.30;75.50
25616;DHT22;13482;48.234;13.006;2023-12-07T00:08:25;5.30;75.50
25616;DHT22;13482;48.234;13.006;2023-12-07T00:10:57;5.30;75.50
25616;DHT22;13482;48.234;13.006;2023-12-07T00:13:38;5.30;75.50
25616;DHT22;13482;48.234;13.006;2023-12-07T00:16:08;5.30;75.50
25616;DHT22;13482;48.234;13.006;2023-12-07T00:18:46;5.30;75.50
25616;DHT22;13482;48.234;13.006;2023-12-07T00:21:20;5.30;75.50
25616;DHT22;13482;48.234;13.006;2023-12-07T00:23:50;5.30;75.40
25616;DHT22;13482;48.234;13.006;2023-12-07T00:26:22;5.30;75.40
25616;DHT22;13482;48.234;13.006;2023-12-07T00:28:51;5.30;75.40
25616;DHT22;13482;48.234;13.006;2023-12-07T00:31:22;5.30;75.40
25616;DHT22;13482;48.234;13.006;2023-12-07T00:33:53;5.30;75.40
25616;DHT22;13482;48.234;13.006;2023-12-07T00:36:22;5.40;75.30
25616;DHT22;13482;48.234;13.006;2023-12-07T00:38:52;5.40;75.30
25616;DHT22;13482;48.234;13.006;2023-12-07T00:41:25;5.40;75.30
25616;DHT22;13482;48.234;13.006;2023-12-07T00:43:55;5.40;75.20
25616;DHT22;13482;48.234;13.006;2023-12-07T00:46:24;5.40;75.20
25616;DHT22;13482;48.234;13.006;2023-12-07T00:48:54;5.40;75.20
25616;DHT22;13482;48.234;13.006;2023-12-07T00:51:25;5.40;75.20
25616;DHT22;13482;48.234;13.006;2023-12-07T00:53:54;5.40;75.10
25616;DHT22;13482;48.234;13.006;2023-12-07T00:56:38;5.40;75.10
25616;DHT22;13482;48.234;13.006;2023-12-07T00:59:07;5.40;75.10
25616;DHT22;13482;48.234;13.006;2023-12-07T01:01:39;5.40;75.00
25616;DHT22;13482;48.234;13.006;2023-12-07T01:04:10;5.40;75.00
25616;DHT22;13482;48.234;13.006;2023-12-07T01:06:38;5.40;75.00
25616;DHT22;13482;48.234;13.006;2023-12-07T01:09:14;5.40;75.00
25616;DHT22;13482;48.234;13.006;2023-12-07T01:11:56;5.40;75.00
25616;DHT22;13482;48.234;13.006;2023-12-07T01:14:31;5.40;74.90
25616;DHT22;13482;48.234;13.006;2023-12-07T01:17:07;5.40;74.80
25616;DHT22;13482;48.234;13.006;2023-12-07T01:19:40;5.40;74.80
25616;DHT22;13482;48.234;13.006;2023-12-07T01:22:08;5.30;74.80
25616;DHT22;13482;48.234;13.006;2023-12-07T01:24:40;5.30;74.70
25616;DHT22;13482;48.234;13.006;2023-12-07T01:27:09;5.30;74.80
25616;DHT22;13482;48.234;13.006;2023-12-07T01:29:39;5.20;74.80
25616;DHT22;13482;48.234;13.006;2023-12-07T01:32:08;5.20;74.80
25616;DHT22;13482;48.234;13.006;2023-12-07T01:34:52;5.20;74.80
25616;DHT22;13482;48.234;13.006;2023-12-07T01:37:24;5.20;74.80
25616;DHT22;13482;48.234;13.006;2023-12-07T01:39:54;5.20;74.80
25616;DHT22;13482;48.234;13.006;2023-12-07T01:42:24;5.20;74.80
25616;DHT22;13482;48.234;13.006;2023-12-07T01:44:54;5.20;74.80
25616;DHT22;13482;48.234;13.006;2023-12-07T01:47:23;5.10;74.80
25616;DHT22;13482;48.234;13.006;2023-12-07T01:49:54;5.10;74.80
25616;DHT22;13482;48.234;13.006;2023-12-07T01:52:26;5.10;74.80
25616;DHT22;13482;48.234;13.006;2023-12-07T01:54:58;5.10;74.80
25616;DHT22;13482;48.234;13.006;2023-12-07T01:57:29;5.10;74.70
25616;DHT22;13482;48.234;13.006;2023-12-07T02:00:04;5.10;74.70
25616;DHT22;13482;48.234;13.006;2023-12-07T02:02:43;5.10;74.60
25616;DHT22;13482;48.234;13.006;2023-12-07T02:05:33;5.10;74.60
25616;DHT22;13482;48.234;13.006;2023-12-07T02:08:07;5.00;74.50
25616;DHT22;13482;48.234;13.006;2023-12-07T02:10:37;5.00;74.50
25616;DHT22;13482;48.234;13.006;2023-12-07T02:13:08;5.00;74.40
25616;DHT22;13482;48.234;13.006;2023-12-07T02:15:39;4.90;74.40
25616;DHT22;13482;48.234;13.006;2023-12-07T02:18:37;4.90;74.40
25616;DHT22;13482;48.234;13.006;2023-12-07T02:21:21;4.90;74.50
25616;DHT22;13482;48.234;13.006;2023-12-07T02:24:02;4.80;74.50
25616;DHT22;13482;48.234;13.006;2023-12-07T02:26:36;4.70;74.50
25616;DHT22;13482;48.234;13.006;2023-12-07T02:29:11;4.70;74.60
25616;DHT22;13482;48.234;13.006;2023-12-07T02:31:40;4.60;74.70
25616;DHT22;13482;48.234;13.006;2023-12-07T02:34:12;4.60;74.70
25616;DHT22;13482;48.234;13.006;2023-12-07T02:36:57;4.60;74.80
25616;DHT22;13482;48.234;13.006;2023-12-07T02:39:29;4.60;74.90
25616;DHT22;13482;48.234;13.006;2023-12-07T02:41:59;4.60;75.00
25616;DHT22;13482;48.234;13.006;2023-12-07T02:44:30;4.60;75.00
25616;DHT22;13482;48.234;13.006;2023-12-07T02:47:01;4.60;75.30
25616;DHT22;13482;48.234;13.006;2023-12-07T02:49:30;4.60;74.80
25616;DHT22;13482;48.234;13.006;2023-12-07T02:52:02;4.60;75.00
25616;DHT22;13482;48.234;13.006;2023-12-07T02:54:33;4.60;75.10
25616;DHT22;13482;48.234;13.006;2023-12-07T02:57:04;4.60;75.10
25616;DHT22;13482;48.234;13.006;2023-12-07T02:59:35;4.60;75.10
25616;DHT22;13482;48.234;13.006;2023-12-07T03:02:04;4.60;75.20
25616;DHT22;13482;48.234;13.006;2023-12-07T03:04:36;4.60;75.20
25616;DHT22;13482;48.234;13.006;2023-12-07T03:07:10;4.60;75.20
25616;DHT22;13482;48.234;13.006;2023-12-07T03:09:39;4.60;75.20
25616;DHT22;13482;48.234;13.006;2023-12-07T03:12:14;4.60;75.20
25616;DHT22;13482;48.234;13.006;2023-12-07T03:14:46;4.60;75.20
25616;DHT22;13482;48.234;13.006;2023-12-07T03:17:17;4.60;75.20
25616;DHT22;13482;48.234;13.006;2023-12-07T03:19:48;4.60;75.20
25616;DHT22;13482;48.234;13.006;2023-12-07T03:22:21;4.60;75.20
25616;DHT22;13482;48.234;13.006;2023-12-07T03:25:05;4.60;75.20
25616;DHT22;13482;48.234;13.006;2023-12-07T03:27:36;4.60;75.20
25616;DHT22;13482;48.234;13.006;2023-12-07T03:30:07;4.60;75.30
25616;DHT22;13482;48.234;13.006;2023-12-07T03:32:41;4.60;75.40
25616;DHT22;13482;48.234;13.006;2023-12-07T03:35:13;4.60;75.40
25616;DHT22;13482;48.234;13.006;2023-12-07T03:37:46;4.60;75.40
25616;DHT22;13482;48.234;13.006;2023-12-07T03:40:18;4.60;75.30
25616;DHT22;13482;48.234;13.006;2023-12-07T03:42:48;4.60;75.30
25616;DHT22;13482;48.234;13.006;2023-12-07T03:45:23;4.60;75.40
25616;DHT22;13482;48.234;13.006;2023-12-07T03:48:02;4.60;75.40
25616;DHT22;13482;48.234;13.006;2023-12-07T03:50:37;4.60;75.30
25616;DHT22;13482;48.234;13.006;2023-12-07T03:53:15;4.60;75.40
25616;DHT22;13482;48.234;13.006;2023-12-07T03:55:49;4.60;75.40
25616;DHT22;13482;48.234;13.006;2023-12-07T03:58:27;4.60;75.30
25616;DHT22;13482;48.234;13.006;2023-12-07T04:01:13;4.60;75.30
25616;DHT22;13482;48.234;13.006;2023-12-07T04:03:57;4.60;75.30
25616;DHT22;13482;48.234;13.006;2023-12-07T04:06:43;4.60;75.30
25616;DHT22;13482;48.234;13.006;2023-12-07T04:09:30;4.60;75.30
25616;DHT22;13482;48.234;13.006;2023-12-07T04:12:03;4.60;75.30
25616;DHT22;13482;48.234;13.006;2023-12-07T04:14:37;4.60;75.40
25616;DHT22;13482;48.234;13.006;2023-12-07T04:17:19;4.60;75.30
25616;DHT22;13482;48.234;13.006;2023-12-07T04:19:51;4.60;75.40
25616;DHT22;13482;48.234;13.006;2023-12-07T04:22:24;4.60;75.40
25616;DHT22;13482;48.234;13.006;2023-12-07T04:24:55;4.60;75.40
25616;DHT22;13482;48.234;13.006;2023-12-07T04:27:25;4.60;75.40
25616;DHT22;13482;48.234;13.006;2023-12-07T04:29:58;4.60;75.40
25616;DHT22;13482;48.234;13.006;2023-12-07T04:32:31;4.60;75.40
25616;DHT22;13482;48.234;13.006;2023-12-07T04:35:13;4.60;75.40
25616;DHT22;13482;48.234;13.006;2023-12-07T04:37:49;4.60;75.40
25616;DHT22;13482;48.234;13.006;2023-12-07T04:40:21;4.60;75.40
25616;DHT22;13482;48.234;13.006;2023-12-07T04:42:51;4.60;75.40
25616;DHT22;13482;48.234;13.006;2023-12-07T04:45:35;4.60;75.40
25616;DHT22;13482;48.234;13.006;2023-12-07T04:48:25;4.60;75.40
25616;DHT22;13482;48.234;13.006;2023-12-07T04:51:13;4.60;75.30
25616;DHT22;13482;48.234;13.006;2023-12-07T04:54:03;4.60;75.30
25616;DHT22;13482;48.234;13.006;2023-12-07T04:56:46;4.60;75.30
25616;DHT22;13482;48.234;13.006;2023-12-07T04:59:29;4.60;75.20
25616;DHT22;13482;48.234;13.006;2023-12-07T05:02:32;4.60;75.30
25616;DHT22;13482;48.234;13.006;2023-12-07T05:06:01;4.60;75.20
25616;DHT22;13482;48.234;13.006;2023-12-07T05:08:46;4.50;75.10
25616;DHT22;13482;48.234;13.006;2023-12-07T05:11:18;4.50;75.10
25616;DHT22;13482;48.234;13.006;2023-12-07T05:13:50;4.50;75.20
25616;DHT22;13482;48.234;13.006;2023-12-07T05:16:23;4.50;75.20
25616;DHT22;13482;48.234;13.006;2023-12-07T05:19:06;4.40;75.20
25616;DHT22;13482;48.234;13.006;2023-12-07T05:21:38;4.40;75.10
25616;DHT22;13482;48.234;13.006;2023-12-07T05:24:08;4.40;75.10
25616;DHT22;13482;48.234;13.006;2023-12-07T05:26:47;4.40;75.20
25616;DHT22;13482;48.234;13.006;2023-12-07T05:29:31;4.30;75.00
25616;DHT22;13482;48.234;13.006;2023-12-07T05:32:17;4.30;75.00
25616;DHT22;13482;48.234;13.006;2023-12-07T05:34:52;4.30;75.00
25616;DHT22;13482;48.234;13.006;2023-12-07T05:38:09;4.30;75.00
25616;DHT22;13482;48.234;13.006;2023-12-07T05:40:44;4.30;75.20
25616;DHT22;13482;48.234;13.006;2023-12-07T05:43:16;4.20;74.90
25616;DHT22;13482;48.234;13.006;2023-12-07T05:45:46;4.20;74.90
25616;DHT22;13482;48.234;13.006;2023-12-07T05:48:19;4.20;74.90
25616;DHT22;13482;48.234;13.006;2023-12-07T05:51:01;4.20;74.90
25616;DHT22;13482;48.234;13.006;2023-12-07T05:54:45;4.20;74.90
25616;DHT22;13482;48.234;13.006;2023-12-07T05:57:21;4.20;74.80
25616;DHT22;13482;48.234;13.006;2023-12-07T05:59:54;4.10;74.90
25616;DHT22;13482;48.234;13.006;2023-12-07T06:02:30;4.10;74.90
25616;DHT22;13482;48.234;13.006;2023-12-07T06:05:04;4.10;75.00
25616;DHT22;13482;48.234;13.006;2023-12-07T06:07:59;4.10;75.00
25616;DHT22;13482;48.234;13.006;2023-12-07T06:11:33;4.00;75.10
25616;DHT22;13482;48.234;13.006;2023-12-07T06:15:04;4.00;75.00
25616;DHT22;13482;48.234;13.006;2023-12-07T06:22:54;4.00;75.00
25616;DHT22;13482;48.234;13.006;2023-12-07T06:26:17;3.90;74.80
25616;DHT22;13482;48.234;13.006;2023-12-07T06:29:51;3.90;74.80
25616;DHT22;13482;48.234;13.006;2023-12-07T06:36:30;3.80;74.90
25616;DHT22;13482;48.234;13.006;2023-12-07T06:39:48;3.80;74.90
25616;DHT22;13482;48.234;13.006;2023-12-07T06:42:33;3.80;74.90
25616;DHT22;13482;48.234;13.006;2023-12-07T06:45:46;3.80;75.00
25616;DHT22;13482;48.234;13.006;2023-12-07T06:48:38;3.70;75.00
25616;DHT22;13482;48.234;13.006;2023-12-07T06:51:11;3.70;75.00
25616;DHT22;13482;48.234;13.006;2023-12-07T06:53:47;3.70;75.10
25616;DHT22;13482;48.234;13.006;2023-12-07T06:56:15;3.70;75.20
25616;DHT22;13482;48.234;13.006;2023-12-07T06:58:44;3.70;75.30
25616;DHT22;13482;48.234;13.006;2023-12-07T07:01:15;3.70;75.30
25616;DHT22;13482;48.234;13.006;2023-12-07T07:03:44;3.70;75.30
25616;DHT22;13482;48.234;13.006;2023-12-07T07:06:13;3.70;75.30
25616;DHT22;13482;48.234;13.006;2023-12-07T07:08:42;3.70;75.30
25616;DHT22;13482;48.234;13.006;2023-12-07T07:11:14;3.70;75.30
25616;DHT22;13482;48.234;13.006;2023-12-07T07:13:46;3.70;75.30
25616;DHT22;13482;48.234;13.006;2023-12-07T07:16:16;3.70;75.40
25616;DHT22;13482;48.234;13.006;2023-12-07T07:18:45;3.70;75.40
25616;DHT22;13482;48.234;13.006;2023-12-07T07:21:20;3.70;75.40
25616;DHT22;13482;48.234;13.006;2023-12-07T07:23:50;3.70;75.50
25616;DHT22;13482;48.234;13.006;2023-12-07T07:26:21;3.70;75.50
25616;DHT22;13482;48.234;13.006;2023-12-07T07:28:53;3.70;75.50
25616;DHT22;13482;48.234;13.006;2023-12-07T07:31:21;3.70;75.50
25616;DHT22;13482;48.234;13.006;2023-12-07T07:33:53;3.70;75.50
25616;DHT22;13482;48.234;13.006;2023-12-07T07:36:31;3.70;75.40
25616;DHT22;13482;48.234;13.006;2023-12-07T07:38:59;3.70;75.30
25616;DHT22;13482;48.234;13.006;2023-12-07T07:41:27;3.70;75.40
25616;DHT22;13482;48.234;13.006;2023-12-07T07:43:55;3.70;75.40
25616;DHT22;13482;48.234;13.006;2023-12-07T07:46:28;3.80;75.50
25616;DHT22;13482;48.234;13.006;2023-12-07T07:48:58;3.80;75.60
25616;DHT22;13482;48.234;13.006;2023-12-07T07:51:26;3.80;75.70
25616;DHT22;13482;48.234;13.006;2023-12-07T07:53:56;3.80;75.60
25616;DHT22;13482;48.234;13.006;2023-12-07T07:56:25;3.90;75.70
25616;DHT22;13482;48.234;13.006;2023-12-07T07:58:54;3.90;75.80
25616;DHT22;13482;48.234;13.006;2023-12-07T08:01:23;4.00;75.80
25616;DHT22;13482;48.234;13.006;2023-12-07T08:03:53;4.00;75.80
25616;DHT22;13482;48.234;13.006;2023-12-07T08:06:22;4.00;75.70
25616;DHT22;13482;48.234;13.006;2023-12-07T08:08:51;4.00;75.60
25616;DHT22;13482;48.234;13.006;2023-12-07T08:11:18;4.10;75.70
25616;DHT22;13482;48.234;13.006;2023-12-07T08:13:46;4.10;75.80
25616;DHT22;13482;48.234;13.006;2023-12-07T08:16:15;4.10;76.00
25616;DHT22;13482;48.234;13.006;2023-12-07T08:18:44;4.20;76.10
25616;DHT22;13482;48.234;13.006;2023-12-07T08:21:22;4.20;76.30
25616;DHT22;13482;48.234;13.006;2023-12-07T08:23:56;4.30;76.50
25616;DHT22;13482;48.234;13.006;2023-12-07T08:26:24;4.40;76.50
25616;DHT22;13482;48.234;13.006;2023-12-07T08:28:55;4.50;76.60
25616;DHT22;13482;48.234;13.006;2023-12-07T08:31:23;4.50;76.60
25616;DHT22;13482;48.234;13.006;2023-12-07T08:33:52;4.60;76.60
25616;DHT22;13482;48.234;13.006;2023-12-07T08:36:20;4.70;76.70
25616;DHT22;13482;48.234;13.006;2023-12-07T08:38:49;4.80;76.80
25616;DHT22;13482;48.234;13.006;2023-12-07T08:41:16;4.90;77.00
25616;DHT22;13482;48.234;13.006;2023-12-07T08:43:47;5.00;77.20
25616;DHT22;13482;48.234;13.006;2023-12-07T08:46:17;5.10;77.30
25616;DHT22;13482;48.234;13.006;2023-12-07T08:48:46;5.20;77.30
25616;DHT22;13482;48.234;13.006;2023-12-07T08:51:14;5.30;77.10
25616;DHT22;13482;48.234;13.006;2023-12-07T08:53:43;5.40;77.00
25616;DHT22;13482;48.234;13.006;2023-12-07T08:56:14;5.60;77.10
25616;DHT22;13482;48.234;13.006;2023-12-07T08:58:42;5.60;77.20
25616;DHT22;13482;48.234;13.006;2023-12-07T09:01:15;5.80;77.20
25616;DHT22;13482;48.234;13.006;2023-12-07T09:04:00;5.90;77.30
25616;DHT22;13482;48.234;13.006;2023-12-07T09:06:36;6.00;77.30
25616;DHT22;13482;48.234;13.006;2023-12-07T09:09:09;6.10;77.00
25616;DHT22;13482;48.234;13.006;2023-12-07T09:11:42;6.30;76.80
25616;DHT22;13482;48.234;13.006;2023-12-07T09:14:13;6.40;76.70
25616;DHT22;13482;48.234;13.006;2023-12-07T09:16:47;6.50;76.60
25616;DHT22;13482;48.234;13.006;2023-12-07T09:19:18;6.60;76.30
25616;DHT22;13482;48.234;13.006;2023-12-07T09:21:47;6.60;75.90
25616;DHT22;13482;48.234;13.006;2023-12-07T09:24:18;6.70;75.70
25616;DHT22;13482;48.234;13.006;2023-12-07T09:26:49;6.70;75.80
25616;DHT22;13482;48.234;13.006;2023-12-07T09:29:30;6.80;76.10
25616;DHT22;13482;48.234;13.006;2023-12-07T09:32:04;6.90;75.80
25616;DHT22;13482;48.234;13.006;2023-12-07T09:34:36;7.00;75.60
25616;DHT22;13482;48.234;13.006;2023-12-07T09:37:12;7.00;75.30
25616;DHT22;13482;48.234;13.006;2023-12-07T09:39:44;7.00;75.40
25616;DHT22;13482;48.234;13.006;2023-12-07T09:42:14;7.10;75.50
25616;DHT22;13482;48.234;13.006;2023-12-07T09:44:48;7.10;75.60
25616;DHT22;13482;48.234;13.006;2023-12-07T09:47:21;7.20;75.60
25616;DHT22;13482;48.234;13.006;2023-12-07T09:50:03;7.20;75.60
25616;DHT22;13482;48.234;13.006;2023-12-07T09:52:38;7.30;75.70
25616;DHT22;13482;48.234;13.006;2023-12-07T09:55:22;7.40;75.60
25616;DHT22;13482;48.234;13.006;2023-12-07T09:57:53;7.50;75.60
25616;DHT22;13482;48.234;13.006;2023-12-07T10:00:26;7.60;75.70
25616;DHT22;13482;48.234;13.006;2023-12-07T10:03:03;7.60;75.60
25616;DHT22;13482;48.234;13.006;2023-12-07T10:06:08;7.70;75.20
25616;DHT22;13482;48.234;13.006;2023-12-07T10:08:37;7.80;75.30
25616;DHT22;13482;48.234;13.006;2023-12-07T10:11:10;7.90;75.30
25616;DHT22;13482;48.234;13.006;2023-12-07T10:13:44;7.90;74.90
25616;DHT22;13482;48.234;13.006;2023-12-07T10:16:16;8.00;75.00
25616;DHT22;13482;48.234;13.006;2023-12-07T10:18:47;8.10;75.10
25616;DHT22;13482;48.234;13.006;2023-12-07T10:21:40;8.10;75.00
25616;DHT22;13482;48.234;13.006;2023-12-07T10:24:21;8.20;74.60
25616;DHT22;13482;48.234;13.006;2023-12-07T10:26:52;8.30;74.90
25616;DHT22;13482;48.234;13.006;2023-12-07T10:29:30;8.30;75.00
25616;DHT22;13482;48.234;13.006;2023-12-07T10:32:03;8.40;75.10
25616;DHT22;13482;48.234;13.006;2023-12-07T10:34:34;8.50;75.10
25616;DHT22;13482;48.234;13.006;2023-12-07T10:37:06;8.60;74.90
25616;DHT22;13482;48.234;13.006;2023-12-07T10:39:37;8.60;74.70
25616;DHT22;13482;48.234;13.006;2023-12-07T10:42:09;8.70;74.50
25616;DHT22;13482;48.234;13.006;2023-12-07T10:44:47;8.80;74.20
25616;DHT22;13482;48.234;13.006;2023-12-07T10:47:22;8.80;74.00
25616;DHT22;13482;48.234;13.006;2023-12-07T10:49:58;8.80;73.90
25616;DHT22;13482;48.234;13.006;2023-12-07T10:52:31;8.90;73.80
25616;DHT22;13482;48.234;13.006;2023-12-07T10:55:20;8.90;73.50
25616;DHT22;13482;48.234;13.006;2023-12-07T10:58:00;8.90;73.10
25616;DHT22;13482;48.234;13.006;2023-12-07T11:00:44;8.90;72.90
25616;DHT22;13482;48.234;13.006;2023-12-07T11:04:16;8.90;72.40
25616;DHT22;13482;48.234;13.006;2023-12-07T11:16:07;9.00;72.20
25616;DHT22;13482;48.234;13.006;2023-12-07T11:22:33;8.90;71.80
25616;DHT22;13482;48.234;13.006;2023-12-07T11:25:51;8.90;72.60
25616;DHT22;13482;48.234;13.006;2023-12-07T11:28:40;8.90;72.90
25616;DHT22;13482;48.234;13.006;2023-12-07T11:31:37;8.90;72.70
25616;DHT22;13482;48.234;13.006;2023-12-07T11:34:38;8.90;72.90
25616;DHT22;13482;48.234;13.006;2023-12-07T11:37:19;9.00;72.90
25616;DHT22;13482;48.234;13.006;2023-12-07T11:40:26;9.00;73.00
25616;DHT22;13482;48.234;13.006;2023-12-07T11:44:03;9.10;73.30
25616;DHT22;13482;48.234;13.006;2023-12-07T11:46:44;9.20;73.20
25616;DHT22;13482;48.234;13.006;2023-12-07T11:49:24;9.30;73.00
25616;DHT22;13482;48.234;13.006;2023-12-07T12:03:17;9.30;71.10
25616;DHT22;13482;48.234;13.006;2023-12-07T12:13:57;9.30;71.30
25616;DHT22;13482;48.234;13.006;2023-12-07T12:16:31;9.20;72.00
25616;DHT22;13482;48.234;13.006;2023-12-07T12:19:00;9.20;71.80
25616;DHT22;13482;48.234;13.006;2023-12-07T12:21:40;9.30;71.80
25616;DHT22;13482;48.234;13.006;2023-12-07T12:24:14;9.30;71.90
25616;DHT22;13482;48.234;13.006;2023-12-07T12:26:44;9.30;71.80
25616;DHT22;13482;48.234;13.006;2023-12-07T12:29:16;9.40;71.90
25616;DHT22;13482;48.234;13.006;2023-12-07T12:32:00;9.40;71.70
25616;DHT22;13482;48.234;13.006;2023-12-07T12:34:38;9.50;71.70
25616;DHT22;13482;48.234;13.006;2023-12-07T12:37:09;9.60;71.70
25616;DHT22;13482;48.234;13.006;2023-12-07T12:39:42;9.60;71.60
25616;DHT22;13482;48.234;13.006;2023-12-07T12:42:16;9.70;71.40
25616;DHT22;13482;48.234;13.006;2023-12-07T12:44:51;9.70;71.40
25616;DHT22;13482;48.234;13.006;2023-12-07T12:47:30;9.80;71.60
25616;DHT22;13482;48.234;13.006;2023-12-07T12:50:05;9.90;71.80
25616;DHT22;13482;48.234;13.006;2023-12-07T12:52:37;10.00;72.00
25616;DHT22;13482;48.234;13.006;2023-12-07T12:55:09;10.10;72.10
25616;DHT22;13482;48.234;13.006;2023-12-07T12:57:41;10.30;72.00
25616;DHT22;13482;48.234;13.006;2023-12-07T13:00:14;10.40;71.60
25616;DHT22;13482;48.234;13.006;2023-12-07T13:02:49;10.50;71.20
25616;DHT22;13482;48.234;13.006;2023-12-07T13:05:19;10.50;70.90
25616;DHT22;13482;48.234;13.006;2023-12-07T13:07:48;10.60;70.80
25616;DHT22;13482;48.234;13.006;2023-12-07T13:10:40;10.70;70.80
25616;DHT22;13482;48.234;13.006;2023-12-07T13:13:20;10.70;70.90
25616;DHT22;13482;48.234;13.006;2023-12-07T13:15:53;10.80;70.60
25616;DHT22;13482;48.234;13.006;2023-12-07T13:18:24;10.90;70.90
25616;DHT22;13482;48.234;13.006;2023-12-07T13:20:55;10.90;70.90
25616;DHT22;13482;48.234;13.006;2023-12-07T13:23:27;11.00;70.70
25616;DHT22;13482;48.234;13.006;2023-12-07T13:25:57;11.10;70.60
25616;DHT22;13482;48.234;13.006;2023-12-07T13:28:28;11.20;70.60
25616;DHT22;13482;48.234;13.006;2023-12-07T13:31:01;11.30;70.50
25616;DHT22;13482;48.234;13.006;2023-12-07T13:37:48;11.50;69.40
25616;DHT22;13482;48.234;13.006;2023-12-07T13:40:20;11.60;70.60
25616;DHT22;13482;48.234;13.006;2023-12-07T13:42:50;11.60;70.60
25616;DHT22;13482;48.234;13.006;2023-12-07T13:45:25;11.70;70.60
25616;DHT22;13482;48.234;13.006;2023-12-07T13:47:58;11.90;70.60
25616;DHT22;13482;48.234;13.006;2023-12-07T13:50:31;12.00;70.60
25616;DHT22;13482;48.234;13.006;2023-12-07T13:53:05;12.20;70.80
25616;DHT22;13482;48.234;13.006;2023-12-07T13:55:41;12.30;70.90
25616;DHT22;13482;48.234;13.006;2023-12-07T13:58:16;12.50;70.80
25616;DHT22;13482;48.234;13.006;2023-12-07T14:00:52;12.70;70.60
25616;DHT22;13482;48.234;13.006;2023-12-07T14:03:23;12.90;70.30
25616;DHT22;13482;48.234;13.006;2023-12-07T14:06:04;13.00;70.80
25616;DHT22;13482;48.234;13.006;2023-12-07T14:08:51;13.20;70.90
25616;DHT22;13482;48.234;13.006;2023-12-07T14:11:34;13.40;70.70
25616;DHT22;13482;48.234;13.006;2023-12-07T14:14:08;13.70;70.70
25616;DHT22;13482;48.234;13.006;2023-12-07T14:16:44;13.90;70.40
25616;DHT22;13482;48.234;13.006;2023-12-07T14:19:28;14.10;70.50
25616;DHT22;13482;48.234;13.006;2023-12-07T14:22:10;14.40;69.80
25616;DHT22;13482;48.234;13.006;2023-12-07T14:24:50;14.60;69.80
25616;DHT22;13482;48.234;13.006;2023-12-07T14:27:49;14.90;69.40
25616;DHT22;13482;48.234;13.006;2023-12-07T14:30:36;15.10;68.80
25616;DHT22;13482;48.234;13.006;2023-12-07T14:33:07;15.30;68.10
25616;DHT22;13482;48.234;13.006;2023-12-07T14:35:47;15.40;67.40
25616;DHT22;13482;48.234;13.006;2023-12-07T14:38:37;15.40;66.10
25616;DHT22;13482;48.234;13.006;2023-12-07T14:41:06;15.30;65.60
25616;DHT22;13482;48.234;13.006;2023-12-07T14:43:52;15.20;64.90
25616;DHT22;13482;48.234;13.006;2023-12-07T14:46:27;15.00;64.10
25616;DHT22;13482;48.234;13.006;2023-12-07T14:49:12;14.70;63.70
25616;DHT22;13482;48.234;13.006;2023-12-07T14:51:55;14.30;63.40
25616;DHT22;13482;48.234;13.006;2023-12-07T14:54:36;14.00;62.90
25616;DHT22;13482;48.234;13.006;2023-12-07T14:57:17;13.60;62.80
25616;DHT22;13482;48.234;13.006;2023-12-07T15:00:07;13.20;62.80
25616;DHT22;13482;48.234;13.006;2023-12-07T15:02:51;12.70;62.80
25616;DHT22;13482;48.234;13.006;2023-12-07T15:06:01;12.20;62.70
25616;DHT22;13482;48.234;13.006;2023-12-07T15:09:03;11.80;62.20
25616;DHT22;13482;48.234;13.006;2023-12-07T15:11:47;11.30;63.10
25616;DHT22;13482;48.234;13.006;2023-12-07T15:14:37;10.90;63.40
25616;DHT22;13482;48.234;13.006;2023-12-07T15:17:22;10.50;63.60
25616;DHT22;13482;48.234;13.006;2023-12-07T15:20:01;10.20;63.80
25616;DHT22;13482;48.234;13.006;2023-12-07T15:22:36;9.90;63.90
25616;DHT22;13482;48.234;13.006;2023-12-07T15:25:13;9.60;64.20
25616;DHT22;13482;48.234;13.006;2023-12-07T15:27:47;9.30;64.30
25616;DHT22;13482;48.234;13.006;2023-12-07T15:30:19;9.10;64.40
25616;DHT22;13482;48.234;13.006;2023-12-07T15:32:59;8.90;64.60
25616;DHT22;13482;48.234;13.006;2023-12-07T15:35:33;8.60;64.80
25616;DHT22;13482;48.234;13.006;2023-12-07T15:38:08;8.40;64.90
25616;DHT22;13482;48.234;13.006;2023-12-07T15:40:44;8.30;65.10
25616;DHT22;13482;48.234;13.006;2023-12-07T15:43:14;8.10;65.20
25616;DHT22;13482;48.234;13.006;2023-12-07T15:45:45;7.90;65.30
25616;DHT22;13482;48.234;13.006;2023-12-07T15:48:20;7.80;65.40
25616;DHT22;13482;48.234;13.006;2023-12-07T15:51:08;7.60;65.50
25616;DHT22;13482;48.234;13.006;2023-12-07T15:53:42;7.40;65.60
25616;DHT22;13482;48.234;13.006;2023-12-07T15:56:11;7.30;65.70
25616;DHT22;13482;48.234;13.006;2023-12-07T15:58:46;7.10;65.80
25616;DHT22;13482;48.234;13.006;2023-12-07T16:01:15;7.00;65.90
25616;DHT22;13482;48.234;13.006;2023-12-07T16:03:48;6.90;66.10
25616;DHT22;13482;48.234;13.006;2023-12-07T16:06:17;6.80;66.20
25616;DHT22;13482;48.234;13.006;2023-12-07T16:08:49;6.70;66.20
25616;DHT22;13482;48.234;13.006;2023-12-07T16:11:19;6.50;66.20
25616;DHT22;13482;48.234;13.006;2023-12-07T16:13:49;6.50;66.20
25616;DHT22;13482;48.234;13.006;2023-12-07T16:16:20;6.30;66.40
25616;DHT22;13482;48.234;13.006;2023-12-07T16:18:49;6.20;66.50
25616;DHT22;13482;48.234;13.006;2023-12-07T16:21:18;6.10;66.60
25616;DHT22;13482;48.234;13.006;2023-12-07T16:23:50;6.00;66.60
25616;DHT22;13482;48.234;13.006;2023-12-07T16:26:21;5.90;66.70
25616;DHT22;13482;48.234;13.006;2023-12-07T16:28:50;5.80;66.90
25616;DHT22;13482;48.234;13.006;2023-12-07T16:31:21;5.80;67.00
25616;DHT22;13482;48.234;13.006;2023-12-07T16:33:53;5.70;67.00
25616;DHT22;13482;48.234;13.006;2023-12-07T16:36:25;5.60;67.10
25616;DHT22;13482;48.234;13.006;2023-12-07T16:38:53;5.50;67.20
25616;DHT22;13482;48.234;13.006;2023-12-07T16:41:23;5.50;67.30
25616;DHT22;13482;48.234;13.006;2023-12-07T16:43:57;5.40;67.30
25616;DHT22;13482;48.234;13.006;2023-12-07T16:46:33;5.40;67.40
25616;DHT22;13482;48.234;13.006;2023-12-07T16:49:06;5.30;67.40
25616;DHT22;13482;48.234;13.006;2023-12-07T16:51:36;5.20;67.50
25616;DHT22;13482;48.234;13.006;2023-12-07T16:54:07;5.10;67.50
25616;DHT22;13482;48.234;13.006;2023-12-07T16:56:36;5.10;67.60
25616;DHT22;13482;48.234;13.006;2023-12-07T16:59:06;5.00;67.60
25616;DHT22;13482;48.234;13.006;2023-12-07T17:01:37;4.90;67.70
25616;DHT22;13482;48.234;13.006;2023-12-07T17:04:09;4.90;67.80
25616;DHT22;13482;48.234;13.006;2023-12-07T17:06:39;4.80;67.90
25616;DHT22;13482;48.234;13.006;2023-12-07T17:09:23;4.70;67.90
25616;DHT22;13482;48.234;13.006;2023-12-07T17:11:52;4.70;68.00